< Typhoon 201208 2012 Season Typhoon 201210 >
Typhoon 201209 (SAOLA)
General InformationTrack Information on Google MapsDetailed Wind InformationAccess Analytics MapList of All Images || NewsDisaster Info.WeblogTrackbackTyphoon FrontTwiphoonTyphoon Now!Typhoon ImaginationResourceGoogle EarthGE AnimationAtom FeedGeoJSON
Detalied Best Track (Time Zone = UTC)
Year Month Day Hour Lat. Long. Pressure (hPa) Wind (kt) Class Image Chart
2012 7 26 18 10.6 130.5 1004 0 2 Image Chart
2012 7 27 00 10.6 130.0 1004 0 2 Image Chart
2012 7 27 06 12.0 129.3 1002 0 2 Image Chart
2012 7 27 12 12.9 127.9 1002 0 2 Image Chart
2012 7 27 18 13.6 127.5 1000 0 2 Image Chart
2012 7 28 00 14.5 126.8 1000 35 3 Image Chart
2012 7 28 06 15.3 126.3 996 40 3 Image Chart
2012 7 28 12 15.8 126.0 996 40 3 Image Chart
2012 7 28 18 16.2 125.5 990 45 3 Image Chart
2012 7 29 00 17.0 124.9 985 55 4 Image Chart
2012 7 29 06 17.5 124.7 985 55 4 Image Chart
2012 7 29 12 18.2 124.4 985 55 4 Image Chart
2012 7 29 18 18.9 124.9 985 55 4 Image Chart
2012 7 30 00 19.5 125.2 980 55 4 Image Chart
2012 7 30 06 20.1 124.8 980 55 4 Image Chart
2012 7 30 12 20.5 124.5 980 55 4 Image Chart
2012 7 30 18 20.8 124.0 975 60 4 Image Chart
2012 7 31 00 21.0 124.1 975 60 4 Image Chart
2012 7 31 06 21.3 124.2 970 60 4 Image Chart
2012 7 31 12 21.7 124.1 970 60 4 Image Chart
2012 7 31 15 22.0 123.9 970 60 4 Image Chart
2012 7 31 18 22.3 123.7 965 65 5 Image Chart
2012 7 31 21 22.4 123.7 965 65 5 Image Chart
2012 8 1 00 22.7 123.6 965 65 5 Image Chart
2012 8 1 03 23.0 123.5 965 65 5 Image Chart
2012 8 1 06 23.4 123.4 960 70 5 Image Chart
2012 8 1 09 23.7 123.2 960 70 5 Image Chart
2012 8 1 12 23.9 123.0 960 70 5 Image Chart
2012 8 1 15 24.0 122.6 960 70 5 Image Chart
2012 8 1 18 23.7 122.2 965 70 5 Image Chart
2012 8 1 21 23.5 122.3 970 65 5 Image Chart
2012 8 2 00 23.8 122.6 975 60 4 Image Chart
2012 8 2 03 24.4 122.6 980 55 4 Image Chart
2012 8 2 06 25.0 122.4 980 50 4 Image Chart
2012 8 2 09 25.4 121.9 980 50 4 Image Chart
2012 8 2 12 25.8 121.3 985 45 3 Image Chart
2012 8 2 18 26.5 120.7 985 40 3 Image Chart
2012 8 3 00 27.0 119.7 990 35 3 Image Chart
2012 8 3 06 27.7 118.7 992 0 2 Image Chart
2012 8 3 12 27.8 117.3 992 0 2 Image Chart
2012 8 3 18 27.7 116.5 992 0 2 Image Chart
2012 8 4 00 27.7 115.8 994 0 2 Image Chart
2012 8 4 06 27.4 115.0 994 0 2 Image Chart
2012 8 4 12 27.1 113.5 996 0 2 Image Chart
2012 8 4 18 26.3 112.4 996 0 2 Image Chart
2012 8 5 00 25.5 111.4 998 0 2 Image Chart
Japan Meteorological Agency Best Track Data | Correction Date : 2012-08-21
< Typhoon 201208 2012 Season Typhoon 201210 >

Help